Time;durP1;ratioP1;P1;durP2;ratioP2;P2;SDS_P1;SDS_P2;PMS_P1;PMS_P2;Temp;Humidity;BMP_temperature;BMP_pressure;BME280_temperature;BME280_humidity;BME280_pressure;Samples;Min_cycle;Max_cycle;Signal;HPM_P1;HPM_P2
2023/10/13 00:02:13;;;;;;;1.58;1.17;;;;;;;;;;5013011;28;20053;-74
2023/10/13 00:04:39;;;;;;;2.03;1.10;;;;;;;;;;5013266;28;20057;-77
2023/10/13 00:07:09;;;;;;;1.83;1.30;;;;;;;;;;5013372;28;20475;-77
2023/10/13 00:09:38;;;;;;;2.92;1.00;;;;;;;;;;5013453;28;20457;-77
2023/10/13 00:12:09;;;;;;;1.92;1.50;;;21.10;91.90;;;;;;5013203;28;20528;-77
2023/10/13 00:14:35;;;;;;;2.53;1.58;;;;;;;;;;5019688;28;20045;-77
2023/10/13 00:17:07;;;;;;;1.45;1.17;;;21.10;91.90;;;;;;5012991;28;20044;-77
2023/10/13 00:19:37;;;;;;;4.53;1.55;;;21.10;90.90;;;;;;5013115;28;20044;-77
2023/10/13 00:22:09;;;;;;;2.42;1.40;;;21.10;88.90;;;;;;5013571;28;20496;-74
2023/10/13 00:24:51;;;;;;;0.85;0.85;;;21.10;91.70;;;;;;4995364;28;20088;-74
2023/10/13 00:30:14;;;;;;;3.03;1.30;;;;;;;;;;5013036;28;20038;-74
2023/10/13 00:32:42;;;;;;;1.15;0.80;;;;;;;;;;5012662;28;20468;-74
2023/10/13 00:35:13;;;;;;;1.55;0.80;;;;;;;;;;5012669;28;20030;-74
2023/10/13 00:37:46;;;;;;;1.10;0.90;;;;;;;;;;5012702;28;20040;-74
2023/10/13 00:43:31;;;;;;;2.47;1.10;;;;;;;;;;4981726;28;20033;-74
2023/10/13 00:45:56;;;;;;;1.88;1.27;;;21.20;88.80;;;;;;5012354;28;20096;-74
2023/10/13 00:48:33;;;;;;;1.65;1.10;;;21.20;91.80;;;;;;5012671;28;20050;-74
2023/10/13 00:51:12;;;;;;;1.73;0.90;;;20.90;91.70;;;;;;5012945;28;20072;-74
2023/10/13 00:53:40;;;;;;;1.63;1.08;;;21.20;91.80;;;;;;5012401;28;20121;-74
2023/10/13 00:56:07;;;;;;;1.75;0.90;;;;;;;;;;5012413;28;20030;-75
2023/10/13 00:58:39;;;;;;;2.88;0.95;;;21.10;91.70;;;;;;5012262;28;20049;-74
2023/10/13 01:01:18;;;;;;;1.40;0.93;;;;;;;;;;5012360;28;20034;-77
2023/10/13 01:03:55;;;;;;;3.85;1.17;;;21.20;88.60;;;;;;5012172;28;20054;-77
2023/10/13 01:06:25;;;;;;;1.42;0.75;;;;;;;;;;5012605;28;20037;-77
2023/10/13 01:09:18;;;;;;;1.73;0.60;;;21.20;91.80;;;;;;5012213;28;20493;-77
2023/10/13 01:11:48;;;;;;;1.52;1.10;;;21.30;91.80;;;;;;5012219;28;20511;-77
2023/10/13 01:14:18;;;;;;;2.00;0.67;;;21.20;91.70;;;;;;5012247;28;20182;-77
2023/10/13 01:16:47;;;;;;;;;;;21.10;92.00;;;;;;5012538;28;20060;-77
2023/10/13 01:19:18;;;;;;;1.20;0.90;;;21.10;90.80;;;;;;5012929;28;20068;-77
2023/10/13 01:21:44;;;;;;;1.63;1.02;;;;;;;;;;5012392;28;20026;-77
2023/10/13 01:24:13;;;;;;;1.10;0.73;;;;;;;;;;5012131;28;20064;-77
2023/10/13 01:26:39;;;;;;;1.95;0.77;;;;;;;;;;5012025;28;20034;-77
2023/10/13 01:29:14;;;;;;;1.52;0.90;;;21.20;88.70;;;;;;5012017;28;20166;-75
2023/10/13 01:31:47;;;;;;;1.67;0.88;;;21.20;88.60;;;;;;5012117;28;20041;-75
2023/10/13 01:34:14;;;;;;;1.60;1.08;;;;;;;;;;5012004;28;20030;-74
2023/10/13 01:36:40;;;;;;;1.05;0.60;;;;;;;;;;5012085;28;20041;-75
2023/10/13 01:39:10;;;;;;;2.90;0.80;;;21.30;91.80;;;;;;5011882;28;20038;-75
2023/10/13 01:41:39;;;;;;;1.08;0.68;;;21.20;91.70;;;;;;5012329;28;20037;-75
2023/10/13 01:44:05;;;;;;;1.48;0.80;;;;;;;;;;5012166;28;20117;-75
2023/10/13 01:46:32;;;;;;;4.57;1.13;;;;;;;;;;5012656;28;20030;-77
2023/10/13 01:48:59;;;;;;;0.40;0.40;;;;;;;;;;5012398;28;20121;-77
2023/10/13 01:51:28;;;;;;;1.67;0.60;;;;;;;;;;5012191;28;20374;-77
2023/10/13 01:53:58;;;;;;;1.90;0.60;;;;;;;;;;5013336;28;20046;-77
2023/10/13 01:56:25;;;;;;;1.42;0.80;;;;;;;;;;5016032;28;20093;-77
2023/10/13 01:58:53;;;;;;;2.20;0.63;;;;;;;;;;5015726;28;20034;-74
2023/10/13 02:01:29;;;;;;;2.08;0.77;;;;;;;;;;5015561;28;20029;-75
2023/10/13 02:04:02;;;;;;;1.02;0.80;;;21.30;88.60;;;;;;5014391;28;20113;-75
2023/10/13 02:06:33;;;;;;;2.00;0.63;;;21.10;91.00;;;;;;5014452;28;20030;-75
2023/10/13 02:09:10;;;;;;;2.47;1.00;;;21.30;91.80;;;;;;5014215;28;20509;-74
2023/10/13 02:11:54;;;;;;;3.25;0.77;;;;;;;;;;5013404;28;20038;-75
2023/10/13 02:14:38;;;;;;;1.48;0.70;;;;;;;;;;5014074;28;20120;-77
2023/10/13 02:17:26;;;;;;;1.60;0.80;;;;;;;;;;5013840;28;20045;-77
2023/10/13 02:20:14;;;;;;;1.35;0.70;;;21.20;91.70;;;;;;5013331;28;20056;-77
2023/10/13 02:22:59;;;;;;;0.90;0.60;;;21.20;91.70;;;;;;5013511;28;20026;-77
2023/10/13 02:25:45;;;;;;;0.90;0.50;;;;;;;;;;5013985;28;20496;-78
2023/10/13 02:28:34;;;;;;;1.00;0.70;;;;;;;;;;5013894;28;20054;-77
2023/10/13 02:31:19;;;;;;;1.25;0.77;;;;;;;;;;5013132;28;20025;-77
2023/10/13 02:34:09;;;;;;;0.95;0.70;;;;;;;;;;5013357;28;20113;-77
2023/10/13 02:36:46;;;;;;;1.08;0.70;;;21.20;90.50;;;;;;5013988;28;20045;-77
2023/10/13 02:39:13;;;;;;;1.67;0.93;;;21.20;91.50;;;;;;5014122;28;20111;-77
2023/10/13 02:41:59;;;;;;;3.08;0.60;;;;;;;;;;5013290;28;20042;-77
2023/10/13 02:44:46;;;;;;;1.63;0.73;;;;;;;;;;5014041;28;20038;-75
2023/10/13 02:47:31;;;;;;;1.80;0.75;;;;;;;;;;5013252;28;20412;-75
2023/10/13 02:50:17;;;;;;;1.85;0.80;;;;;;;;;;5013282;28;20068;-74
2023/10/13 02:53:05;;;;;;;1.20;0.70;;;;;;;;;;5013324;28;20421;-74
2023/10/13 02:55:58;;;;;;;2.63;0.73;;;21.20;88.30;;;;;;5013094;28;20117;-78
2023/10/13 02:58:45;;;;;;;0.82;0.60;;;;;;;;;;4985154;28;20049;-78
2023/10/13 03:01:33;;;;;;;1.35;0.80;;;;;;;;;;4999096;28;20046;-78
2023/10/13 04:17:25;;;;;;;7.75;7.22;;;;;;;;;;6136105;23;20016;-77
2023/10/13 04:25:52;;;;;;;8.15;7.55;;;21.30;89.00;;;;;;6136520;23;20006;-77
2023/10/13 04:28:50;;;;;;;8.45;7.85;;;;;;;;;;6136652;23;20001;-74
2023/10/13 04:31:11;;;;;;;7.85;7.25;;;;;;;;;;6125103;23;20153;-74
2023/10/13 04:33:51;;;;;;;7.22;6.63;;;;;;;;;;6125996;23;20065;-74
2023/10/13 04:41:31;;;;;;;7.00;6.45;;;21.30;92.00;;;;;;6136282;23;20010;-74
2023/10/13 04:44:04;;;;;;;6.32;5.78;;;;;;;;;;6126199;23;20337;-74
2023/10/13 04:46:54;;;;;;;5.88;5.38;;;;;;;;;;6126228;23;20002;-74
2023/10/13 04:49:35;;;;;;;5.22;4.82;;;21.30;91.40;;;;;;6135735;23;19998;-74
2023/10/13 04:54:45;;;;;;;4.18;3.78;;;;;;;;;;6136062;23;20005;-74
2023/10/13 04:57:32;;;;;;;4.35;3.95;;;;;;;;;;6126392;23;20005;-74
2023/10/13 06:30:10;;;;;;;2.45;1.08;;;;;;;;;;6135053;23;20093;-72
2023/10/13 06:32:39;;;;;;;3.88;1.20;;;;;;;;;;6135046;23;19994;-74
2023/10/13 06:35:09;;;;;;;2.92;1.38;;;;;;;;;;6135053;23;20398;-72
2023/10/13 06:37:41;;;;;;;2.90;0.90;;;;;;;;;;6125403;23;20026;-73
2023/10/13 06:42:47;;;;;;;5.30;1.38;;;;;;;;;;6135242;23;20101;-75
2023/10/13 06:45:17;;;;;;;2.20;1.05;;;;;;;;;;6124818;23;20061;-75
2023/10/13 06:47:43;;;;;;;2.67;1.30;;;;;;;;;;6134727;23;19998;-75
2023/10/13 06:50:16;;;;;;;1.75;1.42;;;21.40;89.20;;;;;;6134903;23;20029;-75
2023/10/13 06:52:42;;;;;;;2.03;1.33;;;21.50;92.10;;;;;;6125430;23;20002;-76
2023/10/13 06:55:23;;;;;;;1.98;0.90;;;;;;;;;;6134775;23;20074;-76
2023/10/13 06:57:51;;;;;;;2.50;1.55;;;;;;;;;;6125334;23;20009;-76
2023/10/13 07:00:29;;;;;;;3.80;1.60;;;;;;;;;;6125359;23;20374;-77
2023/10/13 07:03:05;;;;;;;1.27;1.02;;;;;;;;;;6125324;23;20018;-75
2023/10/13 07:05:49;;;;;;;3.55;1.30;;;21.40;89.30;;;;;;6124717;23;20002;-76
2023/10/13 07:08:23;;;;;;;3.15;1.30;;;;;;;;;;6099737;23;20002;-76
2023/10/13 07:10:51;;;;;;;3.95;1.90;;;;;;;;;;6125146;23;20009;-75
2023/10/13 07:13:19;;;;;;;2.65;1.33;;;;;;;;;;6125323;23;20357;-75
2023/10/13 07:15:47;;;;;;;6.35;1.42;;;;;;;;;;6125029;23;20422;-77
2023/10/13 07:18:15;;;;;;;4.82;1.77;;;;;;;;;;6135121;23;20002;-75
2023/10/13 07:20:44;;;;;;;4.03;1.88;;;;;;;;;;6125353;23;19999;-75
2023/10/13 07:23:20;;;;;;;4.18;1.67;;;21.40;92.00;;;;;;6134721;23;20013;-74
2023/10/13 07:25:54;;;;;;;3.25;1.85;;;21.20;89.00;;;;;;6125311;23;20382;-74
2023/10/13 07:28:20;;;;;;;5.05;1.90;;;;;;;;;;6125149;23;20361;-75
2023/10/13 07:33:21;;;;;;;4.45;1.60;;;;;;;;;;6134606;23;20010;-76
2023/10/13 07:35:51;;;;;;;3.58;1.27;;;;;;;;;;6134561;23;19997;-76
2023/10/13 07:38:18;;;;;;;5.20;1.80;;;;;;;;;;6134444;23;19998;-76
2023/10/13 07:40:51;;;;;;;5.28;1.70;;;;;;;;;;6125025;23;20625;-76
2023/10/13 07:43:23;;;;;;;4.90;2.00;;;;;;;;;;6124941;23;20010;-76
2023/10/13 07:45:58;;;;;;;3.42;1.45;;;;;;;;;;6135187;23;19994;-74
2023/10/13 07:48:25;;;;;;;4.10;1.52;;;21.40;90.70;;;;;;6134527;23;20256;-74
2023/10/13 07:51:02;;;;;;;3.97;1.65;;;21.40;89.00;;;;;;6136227;23;20056;-74
2023/10/13 07:53:34;;;;;;;3.85;1.73;;;;;;;;;;6126650;23;20330;-75
2023/10/13 07:56:04;;;;;;;3.92;1.60;;;;;;;;;;6136345;23;20009;-75
2023/10/13 07:58:32;;;;;;;3.65;1.80;;;;;;;;;;6126566;23;20006;-76
2023/10/13 08:06:06;;;;;;;6.47;2.53;;;;;;;;;;6136034;23;20481;-76
2023/10/13 08:08:37;;;;;;;2.53;1.63;;;;;;;;;;6126759;23;20315;-75
2023/10/13 08:11:24;;;;;;;4.13;1.83;;;21.50;89.20;;;;;;6126761;23;20489;-76
2023/10/13 08:14:10;;;;;;;4.93;2.08;;;21.30;92.00;;;;;;6127265;23;19998;-74
2023/10/13 08:19:16;;;;;;;3.92;1.80;;;21.50;89.00;;;;;;6136464;23;20006;-75
2023/10/13 08:21:52;;;;;;;3.58;1.60;;;21.40;91.90;;;;;;6136121;23;20438;-74
2023/10/13 08:32:36;;;;;;;2.80;1.65;;;21.50;91.30;;;;;;6136360;23;20032;-75
2023/10/13 08:38:17;;;;;;;3.92;1.60;;;21.50;91.20;;;;;;6135859;23;20034;-72
2023/10/13 08:41:28;;;;;;;5.57;1.70;;;;;;;;;;6107370;23;20057;-76
2023/10/13 08:43:13;;;;;;;4.20;1.90;;;21.50;92.10;;;;;;6112052;23;20393;-77
2023/10/13 08:48:15;;;;;;;4.75;2.25;;;21.40;91.30;;;;;;6136546;23;20385;-77
2023/10/13 08:53:28;;;;;;;5.97;2.30;;;21.50;89.20;;;;;;6137565;23;20590;-79
2023/10/13 09:04:33;;;;;;;5.40;2.38;;;21.50;92.10;;;;;;6135726;23;20024;-73
2023/10/13 09:15:17;;;;;;;4.88;2.30;;;21.30;90.70;;;;;;6135468;23;20436;-73
2023/10/13 09:17:48;;;;;;;4.82;2.20;;;;;;;;;;6135996;23;20409;-73
2023/10/13 09:25:38;;;;;;;3.97;2.05;;;21.50;90.60;;;;;;6135959;23;20084;-74
2023/10/13 09:28:12;;;;;;;7.85;2.38;;;;;;;;;;6136204;23;20041;-77
2023/10/13 09:30:49;;;;;;;4.57;2.17;;;21.60;92.10;;;;;;6126019;23;20006;-75
2023/10/13 09:33:28;;;;;;;9.05;3.15;;;21.60;92.10;;;;;;6135472;23;20001;-78
2023/10/13 09:35:54;;;;;;;3.60;2.50;;;;;;;;;;6125380;23;20017;-77
2023/10/13 09:38:23;;;;;;;4.25;2.15;;;;;;;;;;6135878;23;19998;-77
2023/10/13 09:41:01;;;;;;;8.75;2.53;;;;;;;;;;6135313;23;20476;-77
2023/10/13 09:43:30;;;;;;;7.28;2.75;;;21.50;90.90;;;;;;6135210;23;20013;-77
2023/10/13 09:46:45;;;;;;;5.05;2.17;;;21.60;89.20;;;;;;6135134;23;19994;-77
2023/10/13 09:48:49;;;;;;;6.32;2.45;;;23.20;91.30;;;;;;6104576;23;20010;-75
2023/10/13 09:51:21;;;;;;;4.80;1.90;;;21.50;89.20;;;;;;6135101;23;20002;-75
2023/10/13 09:54:09;;;;;;;3.85;2.05;;;21.50;89.20;;;;;;6135142;23;19998;-74
2023/10/13 09:56:52;;;;;;;6.85;2.58;;;21.50;92.00;;;;;;6125734;23;20014;-74
2023/10/13 09:59:34;;;;;;;5.90;2.20;;;21.60;92.10;;;;;;6125565;23;20374;-74
2023/10/13 10:02:08;;;;;;;7.03;2.20;;;21.60;92.00;;;;;;6125428;23;20311;-74
2023/10/13 10:04:51;;;;;;;4.70;2.15;;;21.50;91.40;;;;;;6125447;23;20423;-75
2023/10/13 10:07:31;;;;;;;3.50;2.38;;;21.60;89.20;;;;;;6135485;23;20060;-76
2023/10/13 10:10:01;;;;;;;5.28;2.28;;;21.60;92.10;;;;;;6135010;23;20002;-78
2023/10/13 10:12:47;;;;;;;6.53;2.22;;;21.60;89.40;;;;;;6135444;23;20046;-77
2023/10/13 10:15:35;;;;;;;4.40;2.10;;;21.60;89.10;;;;;;6135179;23;20064;-82
2023/10/13 10:18:02;;;;;;;6.85;2.70;;;;;;;;;;6125926;23;20326;-74
2023/10/13 10:20:39;;;;;;;6.05;2.65;;;21.60;92.10;;;;;;6135271;23;20113;-86
2023/10/13 10:23:09;;;;;;;6.32;2.42;;;21.60;92.10;;;;;;6125722;23;20017;-78
2023/10/13 10:25:37;;;;;;;5.50;2.70;;;21.60;91.10;;;;;;6125901;23;20004;-82
2023/10/13 10:28:05;;;;;;;5.38;2.40;;;21.60;92.00;;;;;;6135221;23;20467;-79
2023/10/13 10:30:33;;;;;;;5.25;2.83;;;21.70;92.00;;;;;;6135087;23;20066;-82
2023/10/13 10:33:03;;;;;;;11.80;3.03;;;21.60;92.00;;;;;;6135017;23;19998;-80
2023/10/13 10:35:32;;;;;;;4.50;2.35;;;;;;;;;;6125648;23;19994;-79
2023/10/13 10:38:11;;;;;;;5.15;2.90;;;21.50;89.20;;;;;;6135069;23;19997;-79
2023/10/13 10:40:56;;;;;;;8.15;3.30;;;21.70;92.10;;;;;;6125584;23;20002;-80
2023/10/13 10:43:25;;;;;;;7.30;3.05;;;;;;;;;;6134878;23;20434;-80
2023/10/13 10:45:52;;;;;;;5.30;2.93;;;;;;;;;;6125086;23;20002;-77
2023/10/13 10:48:18;;;;;;;5.53;2.78;;;21.70;90.70;;;;;;6134771;23;20032;-77
2023/10/13 10:50:53;;;;;;;8.65;3.03;;;21.70;92.00;;;;;;6134954;23;20061;-76
2023/10/13 10:53:21;;;;;;;6.30;2.42;;;21.90;91.00;;;;;;6125698;23;20006;-78
2023/10/13 10:55:47;;;;;;;6.50;3.00;;;;;;;;;;6125292;23;19998;-76
2023/10/13 10:58:29;;;;;;;8.93;2.75;;;;;;;;;;6125195;23;20002;-74
2023/10/13 11:01:10;;;;;;;5.35;2.95;;;21.60;89.30;;;;;;6134845;23;20006;-74
2023/10/13 11:03:41;;;;;;;5.38;2.83;;;21.70;90.90;;;;;;6124870;23;20468;-75
2023/10/13 11:06:15;;;;;;;9.95;3.15;;;;;;;;;;6124956;23;20017;-76
2023/10/13 11:08:43;;;;;;;6.00;3.30;;;;;;;;;;6134723;23;20441;-75
2023/10/13 11:11:17;;;;;;;7.70;3.13;;;;;;;;;;6124683;23;20485;-76
2023/10/13 11:13:54;;;;;;;7.32;3.25;;;21.70;89.20;;;;;;6124832;23;20009;-75
2023/10/13 11:16:34;;;;;;;7.05;3.15;;;21.70;92.00;;;;;;6125215;23;19994;-75
2023/10/13 11:19:05;;;;;;;10.32;3.22;;;21.70;89.20;;;;;;6134475;23;20057;-74
2023/10/13 11:21:31;;;;;;;9.55;3.58;;;;;;;;;;6125368;23;20002;-75
2023/10/13 11:23:57;;;;;;;8.40;3.78;;;;;;;;;;6134362;23;20006;-76
2023/10/13 11:26:34;;;;;;;7.28;3.35;;;21.70;92.00;;;;;;6126192;23;20149;-77
2023/10/13 11:29:04;;;;;;;6.55;3.25;;;;;;;;;;6136372;23;20163;-75
2023/10/13 11:31:30;;;;;;;7.35;3.33;;;;;;;;;;6100708;23;20005;-79
2023/10/13 11:33:56;;;;;;;6.35;3.20;;;;;;;;;;6136432;23;20441;-73
2023/10/13 11:36:27;;;;;;;6.88;3.50;;;;;;;;;;6126736;23;20006;-71
2023/10/13 11:38:57;;;;;;;7.18;3.70;;;;;;;;;;6126444;23;20026;-72
2023/10/13 11:41:32;;;;;;;12.23;3.80;;;;;;;;;;6125068;23;20009;-77
2023/10/13 11:44:12;;;;;;;8.13;3.85;;;;;;;;;;6126070;23;20013;-73
2023/10/13 11:49:31;;;;;;;8.02;3.60;;;21.70;92.00;;;;;;6134526;23;20014;-71
2023/10/13 11:52:15;;;;;;;7.95;3.72;;;;;;;;;;6126952;23;19998;-72
2023/10/13 11:54:42;;;;;;;8.82;3.90;;;;;;;;;;6126396;23;20005;-71
2023/10/13 11:57:09;;;;;;;11.77;4.50;;;;;;;;;;6126311;23;20033;-71
2023/10/13 11:59:40;;;;;;;11.88;4.68;;;;;;;;;;6136160;23;20337;-73
2023/10/13 12:04:51;;;;;;;17.17;4.97;;;;;;;;;;6136112;23;20015;-73
2023/10/13 12:10:02;;;;;;;15.20;4.93;;;21.80;91.60;;;;;;6136886;23;20006;-77
2023/10/13 12:12:40;;;;;;;13.30;4.82;;;21.80;90.40;;;;;;6135986;23;19994;-78
2023/10/13 12:15:09;;;;;;;12.65;4.90;;;;;;;;;;6126683;23;20048;-76
2023/10/13 12:17:35;;;;;;;12.82;4.95;;;;;;;;;;6126617;23;20330;-78
2023/10/13 12:20:10;;;;;;;16.05;5.85;;;21.80;88.20;;;;;;6136175;23;20002;-79
2023/10/13 12:22:39;;;;;;;16.77;5.22;;;21.80;88.20;;;;;;6126408;23;20084;-78
2023/10/13 12:25:24;;;;;;;7.78;4.03;;;;;;;;;;6136123;23;20002;-78
2023/10/13 12:27:56;;;;;;;8.80;4.40;;;;;;;;;;6126195;23;20006;-78
2023/10/13 12:33:09;;;;;;;10.98;4.97;;;;;;;;;;6135953;23;20016;-78
2023/10/13 12:35:44;;;;;;;15.43;5.28;;;21.80;86.50;;;;;;6125653;23;20497;-78
2023/10/13 12:38:36;;;;;;;11.55;4.40;;;;;;;;;;6126485;23;20080;-78
2023/10/13 12:52:05;;;;;;;10.50;4.18;;;;;;;;;;6135720;23;20010;-77
2023/10/13 12:54:39;;;;;;;11.05;4.32;;;;;;;;;;6125598;23;20081;-78
2023/10/13 12:57:09;;;;;;;9.70;4.35;;;;;;;;;;6126502;23;20016;-77
2023/10/13 12:59:35;;;;;;;;;;;21.90;85.30;;;;;;6126587;23;20026;-77
2023/10/13 13:02:06;;;;;;;9.55;4.47;;;;;;;;;;6125817;23;20371;-77
2023/10/13 13:04:36;;;;;;;10.20;4.20;;;;;;;;;;6126402;23;20338;-75
2023/10/13 13:07:04;;;;;;;9.57;4.10;;;22.00;88.30;;;;;;6125349;23;20014;-77
2023/10/13 13:09:30;;;;;;;7.05;4.13;;;;;;;;;;6125951;23;20014;-77
2023/10/13 13:11:57;;;;;;;11.50;4.85;;;;;;;;;;6125918;23;19994;-78
2023/10/13 13:14:30;;;;;;;9.15;4.63;;;;;;;;;;6125941;23;20017;-78
2023/10/13 13:17:04;;;;;;;8.13;4.03;;;;;;;;;;6135543;23;20037;-73
2023/10/13 13:19:35;;;;;;;13.77;4.55;;;22.00;90.40;;;;;;6125890;23;20017;-73
2023/10/13 13:22:03;;;;;;;7.72;4.05;;;22.00;90.00;;;;;;6125406;23;19998;-73
2023/10/13 13:24:30;;;;;;;9.93;3.83;;;;;;;;;;6125716;23;20016;-73
2023/10/13 13:27:02;;;;;;;7.07;4.25;;;21.90;88.20;;;;;;6125425;23;20449;-73
2023/10/13 13:29:29;;;;;;;9.73;3.92;;;;;;;;;;6135205;23;20008;-73
2023/10/13 13:31:55;;;;;;;9.43;4.10;;;;;;;;;;6135156;23;20006;-73
2023/10/13 13:34:21;;;;;;;5.63;3.70;;;;;;;;;;6135775;23;20029;-73
2023/10/13 13:36:52;;;;;;;9.30;4.40;;;;;;;;;;6125528;23;20369;-73
2023/10/13 13:39:28;;;;;;;10.55;3.97;;;22.00;90.00;;;;;;6135176;23;20330;-73
2023/10/13 13:41:56;;;;;;;6.55;4.20;;;;;;;;;;6135083;23;19994;-73
2023/10/13 13:44:28;;;;;;;9.88;4.68;;;;;;;;;;6125490;23;20020;-73
2023/10/13 13:46:56;;;;;;;9.35;3.80;;;;;;;;;;6125175;23;20029;-77
2023/10/13 13:49:29;;;;;;;11.18;3.42;;;;;;;;;;6135019;23;20025;-77
2023/10/13 13:51:55;;;;;;;7.20;3.67;;;;;;;;;;6125483;23;20479;-77
2023/10/13 13:54:21;;;;;;;7.93;4.03;;;;;;;;;;6135225;23;19998;-77
2023/10/13 13:56:50;;;;;;;7.38;3.78;;;22.00;85.80;;;;;;6134871;23;20333;-77
2023/10/13 13:59:19;;;;;;;11.43;4.13;;;;;;;;;;6125325;23;20028;-76
2023/10/13 14:01:45;;;;;;;9.02;3.60;;;;;;;;;;6125842;23;20006;-77
2023/10/13 14:04:14;;;;;;;9.00;3.83;;;;;;;;;;6134735;23;20009;-77
2023/10/13 14:06:40;;;;;;;7.65;4.20;;;;;;;;;;6134621;23;20045;-77
2023/10/13 14:09:14;;;;;;;12.68;4.90;;;;;;;;;;6134827;23;20331;-77
2023/10/13 14:14:13;;;;;;;9.85;4.20;;;22.00;85.80;;;;;;6134837;23;20334;-73
2023/10/13 14:16:47;;;;;;;8.40;3.25;;;22.00;90.50;;;;;;6134896;23;20006;-73
2023/10/13 14:20:05;;;;;;;7.00;4.10;;;22.10;90.50;;;;;;6134831;23;20004;-73
2023/10/13 14:22:11;;;;;;;6.78;3.58;;;;;;;;;;6101094;23;20048;-73
2023/10/13 14:24:43;;;;;;;7.53;3.58;;;;;;;;;;6134747;23;20006;-73
2023/10/13 14:27:15;;;;;;;8.55;3.35;;;;;;;;;;6134676;23;19998;-73
2023/10/13 14:29:42;;;;;;;5.22;3.30;;;22.00;88.10;;;;;;6134709;23;20001;-73
2023/10/13 14:32:13;;;;;;;6.15;3.80;;;22.00;86.00;;;;;;6135295;23;20080;-77
2023/10/13 14:34:42;;;;;;;5.65;3.38;;;22.00;85.80;;;;;;6134612;23;19998;-77
2023/10/13 14:37:12;;;;;;;11.63;4.30;;;;;;;;;;6134701;23;20072;-77
2023/10/13 14:39:38;;;;;;;11.35;3.95;;;;;;;;;;6124845;23;20002;-77
2023/10/13 14:42:05;;;;;;;6.63;3.50;;;;;;;;;;6125184;23;20030;-73
2023/10/13 14:44:32;;;;;;;7.10;3.25;;;;;;;;;;6134887;23;20041;-73
2023/10/13 14:46:58;;;;;;;8.50;3.50;;;;;;;;;;6134516;23;20002;-73
2023/10/13 14:49:24;;;;;;;6.20;3.50;;;;;;;;;;6134575;23;20033;-73
2023/10/13 14:51:49;;;;;;;6.63;3.47;;;;;;;;;;6134677;23;19997;-73
2023/10/13 14:54:16;;;;;;;6.97;3.20;;;22.00;88.80;;;;;;6125000;23;20044;-73
2023/10/13 14:56:42;;;;;;;7.03;3.60;;;;;;;;;;6134543;23;20001;-73
2023/10/13 14:59:16;;;;;;;8.05;3.60;;;22.00;88.70;;;;;;6134900;23;20009;-73
2023/10/13 15:01:42;;;;;;;5.13;2.90;;;;;;;;;;6124629;23;19998;-73
2023/10/13 15:04:08;;;;;;;6.50;3.17;;;;;;;;;;6134355;23;20025;-73
2023/10/13 15:06:34;;;;;;;7.18;3.17;;;;;;;;;;6134343;23;20196;-73
2023/10/13 15:09:02;;;;;;;6.05;3.00;;;;;;;;;;6134481;23;20006;-73
2023/10/13 15:11:38;;;;;;;5.80;3.10;;;;;;;;;;6125125;23;19994;-77
2023/10/13 15:14:06;;;;;;;5.68;3.08;;;22.00;89.00;;;;;;6124816;23;20002;-77
2023/10/13 15:16:35;;;;;;;5.93;2.95;;;;;;;;;;6125118;23;19994;-77
2023/10/13 15:19:03;;;;;;;6.55;3.13;;;;;;;;;;6134898;23;20002;-77
2023/10/13 15:21:34;;;;;;;10.05;3.03;;;22.00;90.40;;;;;;6134543;23;20325;-78
2023/10/13 15:24:03;;;;;;;4.72;3.03;;;;;;;;;;6134450;23;20016;-77
2023/10/13 15:26:30;;;;;;;4.80;3.35;;;;;;;;;;6125014;23;20330;-77
2023/10/13 15:28:56;;;;;;;5.20;2.80;;;;;;;;;;6125589;23;20423;-77
2023/10/13 15:34:00;;;;;;;8.27;3.38;;;;;;;;;;6134855;23;20026;-77
2023/10/13 15:36:27;;;;;;;6.68;3.20;;;;;;;;;;6124900;23;20006;-77
2023/10/13 15:38:56;;;;;;;5.90;3.35;;;;;;;;;;6124979;23;20006;-77
2023/10/13 15:41:26;;;;;;;7.85;2.97;;;22.00;85.60;;;;;;6124590;23;20005;-77
2023/10/13 15:43:54;;;;;;;6.88;3.05;;;;;;;;;;6124380;23;20061;-77
2023/10/13 15:46:21;;;;;;;5.53;3.13;;;22.00;90.30;;;;;;6124924;23;20061;-77
2023/10/13 15:48:51;;;;;;;3.63;3.00;;;22.00;90.40;;;;;;6124859;23;20005;-77
2023/10/13 15:51:18;;;;;;;3.38;2.55;;;;;;;;;;6124735;23;19994;-77
2023/10/13 15:53:47;;;;;;;8.50;2.72;;;22.00;88.20;;;;;;6134277;23;20032;-77
2023/10/13 15:56:14;;;;;;;4.80;2.85;;;;;;;;;;6134848;23;20362;-77
2023/10/13 15:58:43;;;;;;;5.25;2.35;;;22.00;90.30;;;;;;6134170;23;20393;-77
2023/10/13 16:01:13;;;;;;;4.35;2.83;;;;;;;;;;6134213;23;19994;-77
2023/10/13 16:03:43;;;;;;;6.33;3.17;;;21.90;90.40;;;;;;6134107;23;20010;-77
2023/10/13 16:06:10;;;;;;;6.50;2.67;;;22.00;88.50;;;;;;6124295;23;20061;-77
2023/10/13 16:08:42;;;;;;;5.45;2.63;;;21.90;90.40;;;;;;6134184;23;20485;-73
2023/10/13 16:11:14;;;;;;;5.93;3.00;;;22.00;90.40;;;;;;6135370;23;19994;-73
2023/10/13 16:13:42;;;;;;;6.72;3.33;;;22.00;90.00;;;;;;6135957;23;20001;-73
2023/10/13 16:16:15;;;;;;;4.72;2.40;;;21.90;90.40;;;;;;6136051;23;20012;-73
2023/10/13 16:18:43;;;;;;;4.43;2.15;;;;;;;;;;6126092;23;20547;-73
2023/10/13 16:21:12;;;;;;;3.90;2.58;;;;;;;;;;6136309;23;20006;-73
2023/10/13 16:23:38;;;;;;;8.55;2.90;;;;;;;;;;6135749;23;20016;-73
2023/10/13 16:26:07;;;;;;;4.28;2.28;;;;;;;;;;6136437;23;20026;-73
2023/10/13 16:28:34;;;;;;;4.75;2.85;;;;;;;;;;6135819;23;20434;-73
2023/10/13 16:31:00;;;;;;;5.72;2.80;;;;;;;;;;6135911;23;20071;-73
2023/10/13 16:33:28;;;;;;;5.68;2.47;;;;;;;;;;6125912;23;20446;-73
2023/10/13 16:35:56;;;;;;;7.10;2.75;;;;;;;;;;6126023;23;20002;-73
2023/10/13 16:38:28;;;;;;;4.03;2.67;;;;;;;;;;6126261;23;20006;-73
2023/10/13 16:40:54;;;;;;;3.67;2.58;;;;;;;;;;6125895;23;20053;-73
2023/10/13 16:43:20;;;;;;;7.45;2.50;;;;;;;;;;6109875;23;20327;-73
2023/10/13 16:45:47;;;;;;;6.30;2.72;;;;;;;;;;6135686;23;19998;-73
2023/10/13 16:48:13;;;;;;;7.63;3.00;;;;;;;;;;6135822;23;19998;-73
2023/10/13 16:50:45;;;;;;;4.95;2.40;;;21.90;85.60;;;;;;6135632;23;20005;-73
2023/10/13 16:53:14;;;;;;;5.00;2.63;;;21.90;90.40;;;;;;6126790;23;20351;-77
2023/10/13 16:55:44;;;;;;;6.90;3.30;;;;;;;;;;6135639;23;19998;-77
2023/10/13 16:58:10;;;;;;;5.70;2.72;;;;;;;;;;6135736;23;19998;-77
2023/10/13 17:00:37;;;;;;;5.35;2.80;;;21.90;88.20;;;;;;6135667;23;20081;-77
2023/10/13 17:03:05;;;;;;;4.97;2.70;;;;;;;;;;6135510;23;20017;-77
2023/10/13 17:05:39;;;;;;;7.22;2.78;;;21.90;90.30;;;;;;6126088;23;20002;-77
2023/10/13 17:08:06;;;;;;;6.18;3.20;;;;;;;;;;6135894;23;19998;-78
2023/10/13 17:10:32;;;;;;;7.70;2.88;;;;;;;;;;6135780;23;20002;-77
2023/10/13 17:13:01;;;;;;;4.75;2.85;;;;;;;;;;6135686;23;20044;-78
2023/10/13 17:15:32;;;;;;;5.90;2.90;;;21.90;90.40;;;;;;6135887;23;20362;-78
2023/10/13 17:18:05;;;;;;;7.57;3.60;;;21.90;90.50;;;;;;6135630;23;20020;-78
2023/10/13 17:20:37;;;;;;;5.50;3.20;;;21.90;90.40;;;;;;6135470;23;20426;-78
2023/10/13 17:23:03;;;;;;;6.57;3.15;;;;;;;;;;6136005;23;20017;-78
2023/10/13 17:25:29;;;;;;;6.95;2.92;;;;;;;;;;6135719;23;19998;-78
2023/10/13 17:27:56;;;;;;;6.35;3.13;;;;;;;;;;6135748;23;20002;-78
2023/10/13 17:30:22;;;;;;;11.55;3.38;;;;;;;;;;6135408;23;20137;-78
2023/10/13 17:32:48;;;;;;;6.22;3.25;;;;;;;;;;6135372;23;20426;-77
2023/10/13 17:35:14;;;;;;;7.40;2.65;;;;;;;;;;6125891;23;20004;-77
2023/10/13 17:37:43;;;;;;;8.63;3.08;;;;;;;;;;6135279;23;19997;-77
2023/10/13 17:40:16;;;;;;;4.18;2.90;;;21.80;90.30;;;;;;6135366;23;19997;-76
2023/10/13 17:42:52;;;;;;;5.90;3.33;;;21.90;85.70;;;;;;6135096;23;20008;-76
2023/10/13 17:45:18;;;;;;;7.63;2.95;;;;;;;;;;6135199;23;19998;-76
2023/10/13 17:47:44;;;;;;;8.70;3.53;;;;;;;;;;6134993;23;19994;-76
2023/10/13 17:50:13;;;;;;;6.75;3.28;;;;;;;;;;6126097;23;20060;-72
2023/10/13 17:52:42;;;;;;;7.53;3.15;;;;;;;;;;6135042;23;20017;-72
2023/10/13 17:55:10;;;;;;;7.10;3.28;;;21.80;90.30;;;;;;6125122;23;20017;-72
2023/10/13 17:57:36;;;;;;;4.95;3.13;;;;;;;;;;6135022;23;20008;-72
2023/10/13 18:00:10;;;;;;;6.93;3.47;;;21.80;89.70;;;;;;6135085;23;20010;-72
2023/10/13 18:02:36;;;;;;;7.38;3.22;;;21.90;90.20;;;;;;6125409;23;20005;-72
2023/10/13 18:05:03;;;;;;;7.32;3.22;;;;;;;;;;6125506;23;20329;-72
2023/10/13 18:07:30;;;;;;;6.35;3.28;;;;;;;;;;6124885;23;20018;-72
2023/10/13 18:09:56;;;;;;;6.47;3.65;;;;;;;;;;6124939;23;20433;-72
2023/10/13 18:12:23;;;;;;;6.22;2.63;;;;;;;;;;6134895;23;20005;-72
2023/10/13 18:14:50;;;;;;;7.60;2.95;;;;;;;;;;6134838;23;20028;-72
2023/10/13 18:17:16;;;;;;;6.03;3.20;;;;;;;;;;6134775;23;20056;-72
2023/10/13 18:19:42;;;;;;;8.52;3.70;;;21.80;87.80;;;;;;6135309;23;20077;-76
2023/10/13 18:22:15;;;;;;;8.13;2.85;;;;;;;;;;6134823;23;20049;-76
2023/10/13 18:24:43;;;;;;;6.07;3.55;;;21.80;85.40;;;;;;6125168;23;20010;-76
2023/10/13 18:27:11;;;;;;;6.55;2.88;;;;;;;;;;6134775;23;19998;-76
2023/10/13 18:29:37;;;;;;;6.97;3.15;;;;;;;;;;6125720;23;20002;-72
2023/10/13 18:32:04;;;;;;;7.15;2.95;;;;;;;;;;6134983;23;20002;-72
2023/10/13 18:34:30;;;;;;;6.68;3.28;;;;;;;;;;6124689;23;20049;-72
2023/10/13 18:36:59;;;;;;;8.20;3.20;;;;;;;;;;6134672;23;20002;-72
2023/10/13 18:39:33;;;;;;;7.70;3.42;;;21.80;90.30;;;;;;6134652;23;20005;-72
2023/10/13 18:41:59;;;;;;;9.52;3.83;;;;;;;;;;6125207;23;20080;-73